Time;durP1;ratioP1;P1;durP2;ratioP2;P2;SDS_P1;SDS_P2;PMS_P1;PMS_P2;Temp;Humidity;BMP_temperature;BMP_pressure;BME280_temperature;BME280_humidity;BME280_pressure;Samples;Min_cycle;Max_cycle;Signal;HPM_P1;HPM_P2
2023/07/20 00:02:11;;;;;;;0.55;0.55;;;;;;;;;;5148607;27;20042;-70
2023/07/20 00:04:38;;;;;;;0.60;0.50;;;;;;;;;;5150917;27;20400;-70
2023/07/20 00:07:05;;;;;;;0.93;0.50;;;;;;;;;;5150764;27;20047;-70
2023/07/20 00:09:33;;;;;;;0.95;0.50;;;;;;;;;;5152431;27;20477;-70
2023/07/20 00:12:00;;;;;;;0.73;0.40;;;;;;;;;;5143764;27;20508;-70
2023/07/20 00:14:28;;;;;;;1.02;0.50;;;;;;;;;;5155246;27;20120;-70
2023/07/20 00:16:56;;;;;;;0.50;0.50;;;;;;;;;;5146878;27;20050;-70
2023/07/20 00:19:24;;;;;;;0.55;0.47;;;;;;;;;;5154937;27;20043;-70
2023/07/20 00:21:51;;;;;;;0.50;0.50;;;;;;;;;;5130241;27;20050;-70
2023/07/20 00:24:18;;;;;;;3.97;0.60;;;;;;;;;;5122768;27;20043;-70
2023/07/20 00:26:46;;;;;;;0.77;0.50;;;;;;;;;;5150883;27;20046;-70
2023/07/20 00:29:13;;;;;;;0.80;0.50;;;;;;;;;;5149738;27;20047;-70
2023/07/20 00:31:40;;;;;;;3.97;0.60;;;;;;;;;;5139193;27;20076;-71
2023/07/20 00:34:09;;;;;;;0.90;0.70;;;;;;;;;;5151813;27;20046;-70
2023/07/20 00:36:36;;;;;;;1.08;0.60;;;;;;;;;;5147459;27;20048;-70
2023/07/20 00:39:04;;;;;;;4.75;0.52;;;;;;;;;;5146769;27;20099;-71
2023/07/20 00:41:32;;;;;;;0.50;0.45;;;;;;;;;;5148962;27;20077;-70
2023/07/20 00:43:59;;;;;;;0.50;0.43;;;;;;;;;;5151484;27;20050;-70
2023/07/20 00:46:27;;;;;;;0.90;0.57;;;;;;;;;;5150119;27;20563;-70
2023/07/20 00:48:54;;;;;;;2.45;0.60;;;;;;;;;;5150219;27;20054;-70
2023/07/20 00:51:24;;;;;;;1.40;0.50;;;;;;;;;;5150457;27;20134;-70
2023/07/20 00:53:52;;;;;;;0.50;0.40;;;;;;;;;;5140117;27;20051;-70
2023/07/20 00:56:19;;;;;;;1.17;0.52;;;;;;;;;;5145618;27;20047;-70
2023/07/20 00:58:46;;;;;;;4.00;0.57;;;;;;;;;;5150531;27;20420;-70
2023/07/20 01:01:14;;;;;;;0.80;0.60;;;;;;;;;;5149314;27;20504;-70
2023/07/20 01:03:41;;;;;;;1.13;0.55;;;;;;;;;;5145081;27;20047;-70
2023/07/20 01:06:12;;;;;;;8.55;0.57;;;;;;;;;;5148825;27;20501;-70
2023/07/20 01:08:42;;;;;;;0.50;0.40;;;;;;;;;;5146900;27;20055;-70
2023/07/20 01:11:15;;;;;;;0.82;0.50;;;;;;;;;;5145082;27;20501;-70
2023/07/20 01:13:43;;;;;;;1.95;0.63;;;;;;;;;;5141714;27;20056;-70
2023/07/20 01:16:10;;;;;;;0.60;0.40;;;;;;;;;;5144381;27;20047;-70
2023/07/20 01:18:38;;;;;;;1.48;0.63;;;;;;;;;;5139559;27;20043;-70
2023/07/20 01:21:07;;;;;;;2.08;0.52;;;;;;;;;;5140393;27;20135;-70
2023/07/20 01:23:58;;;;;;;0.80;0.47;;;;;;;;;;5147303;27;20115;-70
2023/07/20 01:26:38;;;;;;;0.63;0.50;;;;;;;;;;5118292;27;20051;-70
2023/07/20 01:29:19;;;;;;;0.50;0.50;;;;;;;;;;5144576;27;20046;-71
2023/07/20 01:31:49;;;;;;;1.58;0.65;;;;;;;;;;5147940;27;20085;-70
2023/07/20 01:34:19;;;;;;;4.35;0.60;;;;;;;;;;5129816;27;20045;-70
2023/07/20 01:36:47;;;;;;;3.33;0.60;;;;;;;;;;5146062;27;20127;-70
2023/07/20 01:39:14;;;;;;;0.65;0.57;;;;;;;;;;5142959;27;20042;-70
2023/07/20 01:41:42;;;;;;;0.70;0.65;;;;;;;;;;5143744;27;20077;-70
2023/07/20 01:44:10;;;;;;;1.00;0.80;;;;;;;;;;5150332;27;20130;-70
2023/07/20 01:46:37;;;;;;;1.52;0.73;;;;;;;;;;5144173;27;20774;-71
2023/07/20 01:49:06;;;;;;;0.95;0.70;;;;;;;;;;5124129;27;20044;-70
2023/07/20 01:51:33;;;;;;;1.02;0.70;;;;;;;;;;5142411;27;20123;-71
2023/07/20 01:54:00;;;;;;;0.63;0.60;;;;;;;;;;5140031;27;20494;-71
2023/07/20 01:56:28;;;;;;;1.10;0.90;;;;;;;;;;5140495;27;20042;-71
2023/07/20 01:58:55;;;;;;;1.55;0.90;;;;;;;;;;5144933;27;20051;-70
2023/07/20 02:01:22;;;;;;;3.67;0.73;;;;;;;;;;5144299;27;20047;-71
2023/07/20 02:03:49;;;;;;;2.50;0.85;;;;;;;;;;5146006;27;20050;-70
2023/07/20 02:06:18;;;;;;;1.15;0.80;;;;;;;;;;5145982;27;20053;-71
2023/07/20 02:08:45;;;;;;;1.20;1.00;;;;;;;;;;5149271;27;20051;-70
2023/07/20 02:11:13;;;;;;;5.30;0.80;;;;;;;;;;5142425;27;20081;-70
2023/07/20 02:13:40;;;;;;;3.25;1.00;;;;;;;;;;5144502;27;20058;-71
2023/07/20 02:16:07;;;;;;;3.35;0.90;;;;;;;;;;5142585;27;20047;-70
2023/07/20 02:18:35;;;;;;;1.98;0.88;;;;;;;;;;5144136;27;20049;-70
2023/07/20 02:21:02;;;;;;;3.22;0.90;;;;;;;;;;5146674;27;20042;-70
2023/07/20 02:23:30;;;;;;;1.35;0.90;;;;;;;;;;5146725;27;20053;-70
2023/07/20 02:25:58;;;;;;;1.98;0.90;;;;;;;;;;5144039;27;20043;-70
2023/07/20 02:28:25;;;;;;;2.22;1.17;;;;;;;;;;5142521;27;20042;-70
2023/07/20 02:30:53;;;;;;;0.95;0.82;;;;;;;;;;5143365;27;20138;-70
2023/07/20 02:33:21;;;;;;;2.42;1.00;;;;;;;;;;5143051;27;20110;-70
2023/07/20 02:35:48;;;;;;;1.35;1.00;;;;;;;;;;5149259;27;20047;-70
2023/07/20 02:38:16;;;;;;;1.65;1.20;;;;;;;;;;5141457;27;20079;-70
2023/07/20 02:40:44;;;;;;;1.58;1.00;;;;;;;;;;5148410;27;20601;-71
2023/07/20 02:43:12;;;;;;;2.72;1.05;;;;;;;;;;5143696;27;20039;-70
2023/07/20 02:45:42;;;;;;;1.48;1.10;;;;;;;;;;5140027;27;20047;-70
2023/07/20 02:48:09;;;;;;;1.83;1.10;;;;;;;;;;5147142;27;20047;-70
2023/07/20 02:50:37;;;;;;;2.88;0.90;;;;;;;;;;5139711;27;20087;-71
2023/07/20 02:53:04;;;;;;;1.20;0.85;;;;;;;;;;5143524;27;20078;-70
2023/07/20 02:55:31;;;;;;;2.58;1.02;;;;;;;;;;5136504;27;20524;-70
2023/07/20 02:58:00;;;;;;;1.30;1.08;;;;;;;;;;5139566;27;20054;-70
2023/07/20 03:00:27;;;;;;;1.40;1.10;;;;;;;;;;5145962;27;20076;-70
2023/07/20 03:02:55;;;;;;;2.08;1.20;;;;;;;;;;5140378;27;20057;-70
2023/07/20 03:05:25;;;;;;;1.75;0.80;;;;;;;;;;5147310;27;20055;-71
2023/07/20 03:07:52;;;;;;;1.77;0.90;;;;;;;;;;5138304;27;20042;-70
2023/07/20 03:10:19;;;;;;;1.75;1.48;;;;;;;;;;5129015;27;20126;-70
2023/07/20 03:12:47;;;;;;;1.20;1.00;;;;;;;;;;5148842;27;20382;-70
2023/07/20 03:15:15;;;;;;;2.75;1.10;;;;;;;;;;5148660;27;20054;-70
2023/07/20 03:17:42;;;;;;;2.55;1.10;;;;;;;;;;5142625;27;20054;-70
2023/07/20 03:20:12;;;;;;;1.27;1.10;;;;;;;;;;5145780;27;20405;-70
2023/07/20 03:22:39;;;;;;;1.38;1.00;;;;;;;;;;5145307;27;20069;-70
2023/07/20 03:25:07;;;;;;;1.90;1.20;;;;;;;;;;5124121;27;20051;-70
2023/07/20 03:27:35;;;;;;;1.92;1.27;;;;;;;;;;5143755;27;20050;-70
2023/07/20 03:30:02;;;;;;;1.40;1.13;;;;;;;;;;5147598;27;20042;-70
2023/07/20 03:32:30;;;;;;;1.15;1.00;;;;;;;;;;5142991;27;20099;-70
2023/07/20 03:34:58;;;;;;;1.52;1.17;;;;;;;;;;5141525;27;20043;-70
2023/07/20 03:37:25;;;;;;;2.47;1.23;;;;;;;;;;5145356;27;20049;-70
2023/07/20 03:39:52;;;;;;;1.98;1.30;;;;;;;;;;5141910;27;20042;-70
2023/07/20 03:42:19;;;;;;;4.70;1.33;;;;;;;;;;5147978;27;20050;-70
2023/07/20 03:44:47;;;;;;;3.05;1.20;;;;;;;;;;5135544;27;20056;-70
2023/07/20 03:47:14;;;;;;;1.58;1.08;;;;;;;;;;5113573;27;20051;-70
2023/07/20 03:49:43;;;;;;;3.08;1.10;;;;;;;;;;5142521;27;20508;-70
2023/07/20 03:52:10;;;;;;;1.40;1.17;;;;;;;;;;5145397;27;20043;-70
2023/07/20 03:54:38;;;;;;;1.88;1.00;;;;;;;;;;5135671;27;20486;-71
2023/07/20 03:57:05;;;;;;;1.90;1.20;;;;;;;;;;5137311;27;20043;-70
2023/07/20 03:59:31;;;;;;;1.73;1.17;;;;;;;;;;5140328;27;20049;-70
2023/07/20 04:01:58;;;;;;;2.63;1.27;;;;;;;;;;5146016;27;20053;-70
2023/07/20 04:04:26;;;;;;;1.50;1.05;;;;;;;;;;5137978;27;20482;-70
2023/07/20 04:06:54;;;;;;;2.65;1.13;;;;;;;;;;5129349;27;20050;-70
2023/07/20 04:09:21;;;;;;;1.63;1.20;;;;;;;;;;5145495;27;20047;-70
2023/07/20 04:11:49;;;;;;;1.60;1.00;;;;;;;;;;5150768;27;20473;-70
2023/07/20 04:14:16;;;;;;;1.40;1.00;;;;;;;;;;5138339;27;20043;-70
2023/07/20 04:16:43;;;;;;;1.55;1.10;;;;;;;;;;5145060;27;20468;-70
2023/07/20 04:19:11;;;;;;;2.22;1.35;;;;;;;;;;5144048;27;20078;-71
2023/07/20 04:21:41;;;;;;;2.80;1.00;;;;;;;;;;5146447;27;20078;-70
2023/07/20 04:24:10;;;;;;;1.38;0.70;;;;;;;;;;5141031;27;20051;-71
2023/07/20 04:26:37;;;;;;;2.95;0.90;;;;;;;;;;5138085;27;20107;-70
2023/07/20 04:29:05;;;;;;;4.88;0.90;;;;;;;;;;5149255;27;20042;-70
2023/07/20 04:31:33;;;;;;;1.67;0.85;;;;;;;;;;5146063;27;20393;-70
2023/07/20 04:34:00;;;;;;;2.65;0.90;;;;;;;;;;5143336;27;20094;-70
2023/07/20 04:36:27;;;;;;;2.58;0.80;;;;;;;;;;5145532;27;20439;-70
2023/07/20 04:38:55;;;;;;;3.22;1.00;;;;;;;;;;5147867;27;20061;-71
2023/07/20 04:41:24;;;;;;;2.40;0.70;;;;;;;;;;5144847;27;20051;-70
2023/07/20 04:43:52;;;;;;;2.30;0.90;;;;;;;;;;5146523;27;20070;-70
2023/07/20 04:46:21;;;;;;;1.02;0.73;;;;;;;;;;5140408;27;20046;-70
2023/07/20 04:48:48;;;;;;;5.43;0.65;;;;;;;;;;5139335;27;20135;-70
2023/07/20 04:51:17;;;;;;;4.43;0.80;;;;;;;;;;5142304;27;20103;-70
2023/07/20 04:53:44;;;;;;;2.67;0.80;;;;;;;;;;5144356;27;20065;-70
2023/07/20 04:56:11;;;;;;;2.08;0.70;;;;;;;;;;5139085;27;20501;-70
2023/07/20 04:58:40;;;;;;;9.27;0.90;;;;;;;;;;5138223;27;20115;-70
2023/07/20 05:01:07;;;;;;;2.75;1.10;;;;;;;;;;5147804;27;20131;-63
2023/07/20 05:03:34;;;;;;;2.10;0.88;;;;;;;;;;5138292;27;20061;-62
2023/07/20 05:06:01;;;;;;;1.75;0.77;;;;;;;;;;5149985;27;20442;-63
2023/07/20 05:08:29;;;;;;;2.80;0.90;;;;;;;;;;5140958;27;20050;-63
2023/07/20 05:10:56;;;;;;;2.17;0.90;;;;;;;;;;5137710;27;20126;-63
2023/07/20 05:13:24;;;;;;;2.65;1.10;;;;;;;;;;5145507;27;20050;-63
2023/07/20 05:15:54;;;;;;;4.03;1.02;;;;;;;;;;5143264;27;20055;-62
2023/07/20 05:18:23;;;;;;;2.28;1.00;;;;;;;;;;5141759;27;20058;-63
2023/07/20 05:20:50;;;;;;;2.47;0.88;;;;;;;;;;5146052;27;20039;-63
2023/07/20 05:23:19;;;;;;;1.38;0.90;;;;;;;;;;5139974;27;20131;-63
2023/07/20 05:25:46;;;;;;;2.58;0.90;;;;;;;;;;5143333;27;20050;-63
2023/07/20 05:28:13;;;;;;;3.33;0.95;;;;;;;;;;5147541;27;20057;-63
2023/07/20 05:30:41;;;;;;;4.35;0.90;;;;;;;;;;5142397;27;20054;-64
2023/07/20 05:33:10;;;;;;;2.22;0.80;;;;;;;;;;5120156;27;20058;-63
2023/07/20 05:35:38;;;;;;;4.40;0.80;;;;;;;;;;5140557;27;20050;-63
2023/07/20 05:38:06;;;;;;;1.35;0.60;;;;;;;;;;5121440;27;20086;-63
2023/07/20 05:40:33;;;;;;;2.15;1.02;;;;;;;;;;5145737;27;20077;-63
2023/07/20 05:43:01;;;;;;;2.50;0.80;;;;;;;;;;5145400;27;20073;-63
2023/07/20 05:45:28;;;;;;;1.13;0.40;;;;;;;;;;5149491;27;20078;-63
2023/07/20 05:47:55;;;;;;;2.78;0.60;;;;;;;;;;5143111;27;20141;-63
2023/07/20 05:50:24;;;;;;;0.73;0.40;;;;;;;;;;5137065;27;20512;-63
2023/07/20 05:52:54;;;;;;;0.88;0.50;;;;;;;;;;5124943;27;20078;-63
2023/07/20 05:55:21;;;;;;;0.30;0.30;;;;;;;;;;5145405;27;20043;-63
2023/07/20 05:57:49;;;;;;;1.63;0.50;;;;;;;;;;5149544;27;20053;-63
2023/07/20 06:00:19;;;;;;;2.25;0.47;;;;;;;;;;5142707;27;20069;-63
2023/07/20 06:02:47;;;;;;;0.80;0.45;;;;;;;;;;5147686;27;20074;-63
2023/07/20 06:05:15;;;;;;;2.80;0.90;;;;;;;;;;5127320;27;20046;-63
2023/07/20 06:07:44;;;;;;;4.03;0.60;;;;;;;;;;5146288;27;20066;-63
2023/07/20 06:10:11;;;;;;;2.15;0.60;;;;;;;;;;5145864;27;20047;-63
2023/07/20 06:12:38;;;;;;;1.38;0.65;;;;;;;;;;5145485;27;20043;-62
2023/07/20 06:15:07;;;;;;;0.75;0.52;;;;;;;;;;5146537;27;20055;-63
2023/07/20 06:17:34;;;;;;;1.55;0.52;;;;;;;;;;5145332;27;20060;-63
2023/07/20 06:20:01;;;;;;;3.63;0.63;;;;;;;;;;5143946;27;20084;-63
2023/07/20 06:22:29;;;;;;;3.63;0.77;;;;;;;;;;5125118;27;20089;-63
2023/07/20 06:24:57;;;;;;;2.92;0.93;;;;;;;;;;5123543;27;20057;-63
2023/07/20 06:27:24;;;;;;;4.80;1.10;;;;;;;;;;5139143;27;20264;-63
2023/07/20 06:29:52;;;;;;;1.88;0.93;;;;;;;;;;5146923;27;20386;-63
2023/07/20 06:32:19;;;;;;;2.80;1.00;;;;;;;;;;5122955;27;20057;-63
2023/07/20 06:34:47;;;;;;;2.15;1.05;;;;;;;;;;5142129;27;20127;-63
2023/07/20 06:37:14;;;;;;;4.50;1.20;;;;;;;;;;5138281;27;20050;-63
2023/07/20 06:39:41;;;;;;;1.73;0.98;;;;;;;;;;5139275;27;20059;-63
2023/07/20 06:42:10;;;;;;;5.90;1.75;;;;;;;;;;5145468;27;20046;-63
2023/07/20 06:44:37;;;;;;;2.40;1.10;;;;;;;;;;5138907;27;20046;-63
2023/07/20 06:47:05;;;;;;;2.22;1.00;;;;;;;;;;5147473;27;20506;-64
2023/07/20 06:49:32;;;;;;;2.55;1.15;;;;;;;;;;5140452;27;20350;-63
2023/07/20 06:51:59;;;;;;;2.63;1.20;;;;;;;;;;5141701;27;20339;-63
2023/07/20 06:54:26;;;;;;;2.47;1.08;;;;;;;;;;5142118;27;20034;-63
2023/07/20 06:56:54;;;;;;;2.50;1.02;;;;;;;;;;5146651;27;20496;-63
2023/07/20 06:59:24;;;;;;;4.90;1.15;;;;;;;;;;5145977;27;20104;-63
2023/07/20 07:01:51;;;;;;;2.00;1.00;;;;;;;;;;5145958;27;20496;-63
2023/07/20 07:04:18;;;;;;;2.03;1.20;;;;;;;;;;5127027;27;20046;-63
2023/07/20 07:06:45;;;;;;;3.95;1.33;;;;;;;;;;5144273;27;20464;-63
2023/07/20 07:09:12;;;;;;;2.70;1.15;;;;;;;;;;5143583;27;20054;-63
2023/07/20 07:11:40;;;;;;;4.30;1.50;;;;;;;;;;5143683;27;20035;-63
2023/07/20 07:14:07;;;;;;;7.22;1.08;;;;;;;;;;5144011;27;20397;-63
2023/07/20 07:16:36;;;;;;;3.08;1.13;;;;;;;;;;5127470;27;20067;-63
2023/07/20 07:19:03;;;;;;;3.92;1.20;;;;;;;;;;5146086;27;20727;-63
2023/07/20 07:21:30;;;;;;;2.95;1.40;;;;;;;;;;5146080;27;20038;-63
2023/07/20 07:23:59;;;;;;;2.00;1.05;;;;;;;;;;5139961;27;20038;-63
2023/07/20 07:26:26;;;;;;;4.28;1.25;;;;;;;;;;5142905;27;20066;-63
2023/07/20 07:28:54;;;;;;;2.63;1.25;;;;;;;;;;5144294;27;20055;-63
2023/07/20 07:31:23;;;;;;;3.85;1.40;;;;;;;;;;5124123;27;20129;-63
2023/07/20 07:33:51;;;;;;;5.80;1.17;;;;;;;;;;5121326;27;20055;-63
2023/07/20 07:36:19;;;;;;;6.65;1.50;;;;;;;;;;5139954;27;20043;-63
2023/07/20 07:38:46;;;;;;;3.20;0.93;;;;;;;;;;5144250;27;20543;-62
2023/07/20 07:41:14;;;;;;;4.03;0.93;;;;;;;;;;5150522;27;20043;-63
2023/07/20 07:43:41;;;;;;;5.20;1.08;;;;;;;;;;5149452;27;20043;-64
2023/07/20 07:46:08;;;;;;;1.70;0.82;;;;;;;;;;5128726;27;20054;-63
2023/07/20 07:48:35;;;;;;;3.10;1.13;;;;;;;;;;5148173;27;20668;-63
2023/07/20 07:51:04;;;;;;;4.65;1.13;;;;;;;;;;5129592;27;20526;-63
2023/07/20 07:53:32;;;;;;;4.25;0.85;;;;;;;;;;5148850;27;20054;-63
2023/07/20 07:56:00;;;;;;;2.50;0.82;;;;;;;;;;5147650;27;20064;-63
2023/07/20 07:58:27;;;;;;;2.10;0.98;;;;;;;;;;5151292;27;20054;-63
2023/07/20 08:00:54;;;;;;;4.20;1.27;;;;;;;;;;5150836;27;20504;-63
2023/07/20 08:03:24;;;;;;;4.20;0.85;;;;;;;;;;5150547;27;20049;-63
2023/07/20 08:05:51;;;;;;;1.20;0.70;;;;;;;;;;5148235;27;20042;-64
2023/07/20 08:08:20;;;;;;;2.67;0.70;;;;;;;;;;5147479;27;20047;-63
2023/07/20 08:10:47;;;;;;;3.45;1.00;;;;;;;;;;5148325;27;20058;-64
2023/07/20 08:13:15;;;;;;;2.05;0.75;;;;;;;;;;5153292;27;20042;-63
2023/07/20 08:15:47;;;;;;;0.85;0.47;;;;;;;;;;5148342;27;20498;-63
2023/07/20 08:18:15;;;;;;;3.20;0.80;;;;;;;;;;5149762;27;20062;-63
2023/07/20 08:20:45;;;;;;;3.92;0.90;;;;;;;;;;5148012;27;20051;-63
2023/07/20 08:23:12;;;;;;;3.10;0.80;;;;;;;;;;5132430;27;20477;-63
2023/07/20 08:25:43;;;;;;;3.88;0.88;;;;;;;;;;5144818;27;20058;-63
2023/07/20 08:28:11;;;;;;;1.77;0.70;;;;;;;;;;5144871;27;20087;-63
2023/07/20 08:30:42;;;;;;;4.20;0.70;;;;;;;;;;5123276;27;20042;-63
2023/07/20 08:33:09;;;;;;;1.20;0.68;;;;;;;;;;5139824;27;20043;-63
2023/07/20 08:35:37;;;;;;;2.53;0.80;;;;;;;;;;5144035;27;20050;-63
2023/07/20 08:38:05;;;;;;;2.70;0.73;;;;;;;;;;5124611;27;20051;-63
2023/07/20 08:40:32;;;;;;;1.15;0.60;;;;;;;;;;5148607;27;20042;-63
2023/07/20 08:43:01;;;;;;;1.30;0.60;;;;;;;;;;5120490;27;20524;-63
2023/07/20 08:45:30;;;;;;;1.63;0.77;;;;;;;;;;5141061;27;20074;-64
2023/07/20 08:47:58;;;;;;;1.58;0.57;;;;;;;;;;5146612;27;20039;-64
2023/07/20 08:50:26;;;;;;;0.82;0.60;;;;;;;;;;5148503;27;20130;-63
2023/07/20 08:52:54;;;;;;;0.75;0.60;;;;;;;;;;5146008;27;20050;-63
2023/07/20 08:55:23;;;;;;;1.10;0.68;;;;;;;;;;5140120;27;20066;-63
2023/07/20 08:57:52;;;;;;;2.83;0.70;;;;;;;;;;5143395;27;20070;-63
2023/07/20 09:00:21;;;;;;;1.65;0.63;;;;;;;;;;5139103;27;20103;-63
2023/07/20 09:02:51;;;;;;;3.10;0.68;;;;;;;;;;5144336;27;20763;-63
2023/07/20 09:05:18;;;;;;;2.00;0.70;;;;;;;;;;5137277;27;20618;-63
2023/07/20 09:07:46;;;;;;;1.27;0.60;;;;;;;;;;5146449;27;20049;-64
2023/07/20 09:10:13;;;;;;;1.08;0.82;;;;;;;;;;5140369;27;20050;-64
2023/07/20 09:12:41;;;;;;;1.00;0.50;;;;;;;;;;5144689;27;20367;-63
2023/07/20 09:15:09;;;;;;;1.42;0.65;;;;;;;;;;5149550;27;20430;-63
2023/07/20 09:17:38;;;;;;;1.55;0.70;;;;;;;;;;5139309;27;20492;-64
2023/07/20 09:20:08;;;;;;;2.40;0.68;;;;;;;;;;5146302;27;20126;-64
2023/07/20 09:22:36;;;;;;;2.30;0.77;;;;;;;;;;5135751;27;20134;-64
2023/07/20 09:25:03;;;;;;;2.28;0.70;;;;;;;;;;5119789;27;20062;-63
2023/07/20 09:27:37;;;;;;;1.88;0.77;;;;;;;;;;5141341;27;20051;-63
2023/07/20 09:30:06;;;;;;;0.73;0.60;;;;;;;;;;5148212;27;20045;-63
2023/07/20 09:32:39;;;;;;;1.02;0.70;;;;;;;;;;5149707;27;20042;-64
2023/07/20 09:35:08;;;;;;;1.88;0.73;;;;;;;;;;5142446;27;20103;-64
2023/07/20 09:37:36;;;;;;;3.78;0.77;;;;;;;;;;5148278;27;20050;-64
2023/07/20 09:40:03;;;;;;;1.52;0.70;;;;;;;;;;5147741;27;20454;-64
2023/07/20 09:42:31;;;;;;;2.40;0.80;;;;;;;;;;5145050;27;20696;-63
2023/07/20 09:44:58;;;;;;;1.80;0.80;;;;;;;;;;5148267;27;20077;-63
2023/07/20 09:47:26;;;;;;;1.98;0.60;;;;;;;;;;5136587;27;20050;-63
2023/07/20 09:50:00;;;;;;;2.95;0.60;;;;;;;;;;5146090;27;20500;-63
2023/07/20 09:52:29;;;;;;;1.67;0.75;;;;;;;;;;5142202;27;21035;-64
2023/07/20 09:54:56;;;;;;;2.83;0.80;;;;;;;;;;5143401;27;20058;-63
2023/07/20 09:57:24;;;;;;;2.45;0.85;;;;;;;;;;5147064;27;20454;-63
2023/07/20 09:59:51;;;;;;;2.65;0.80;;;;;;;;;;5150191;27;20526;-64
2023/07/20 10:02:22;;;;;;;1.20;0.60;;;;;;;;;;5136682;27;20521;-63
2023/07/20 10:04:53;;;;;;;0.98;0.60;;;;;;;;;;5144706;27;20473;-64
2023/07/20 10:07:22;;;;;;;2.35;0.90;;;;;;;;;;5137124;27;20093;-64
2023/07/20 10:09:52;;;;;;;3.47;0.68;;;;;;;;;;5125110;27;20046;-64
2023/07/20 10:12:21;;;;;;;1.75;0.80;;;;;;;;;;5144381;27;20043;-64
2023/07/20 10:14:54;;;;;;;1.42;0.70;;;;;;;;;;5147480;27;20051;-64
2023/07/20 10:17:21;;;;;;;;;;;;;;;;;;5147896;27;20058;-64
2023/07/20 10:19:51;;;;;;;1.38;0.70;;;;;;;;;;5144620;27;20655;-64
2023/07/20 10:22:21;;;;;;;2.05;0.85;;;;;;;;;;5142294;27;21358;-64
2023/07/20 10:24:49;;;;;;;7.25;0.95;;;;;;;;;;5148946;27;20042;-64
2023/07/20 10:27:18;;;;;;;1.08;0.68;;;;;;;;;;5138653;27;20506;-64
2023/07/20 10:29:45;;;;;;;1.45;0.80;;;;;;;;;;5142291;27;20047;-64
2023/07/20 10:32:13;;;;;;;2.25;0.80;;;;;;;;;;5146166;27;20051;-65
2023/07/20 10:34:40;;;;;;;2.97;0.77;;;;;;;;;;5147273;27;20046;-64
2023/07/20 10:37:08;;;;;;;1.98;0.90;;;;;;;;;;5145702;27;20466;-64
2023/07/20 10:39:35;;;;;;;2.63;0.85;;;;;;;;;;5149602;27;20125;-64
2023/07/20 10:42:03;;;;;;;2.42;0.70;;;;;;;;;;5141928;27;20069;-65
2023/07/20 10:44:32;;;;;;;1.35;0.80;;;;;;;;;;5144558;27;20059;-65
2023/07/20 10:47:03;;;;;;;3.15;1.00;;;;;;;;;;5149747;27;20057;-65
2023/07/20 10:49:30;;;;;;;1.33;0.80;;;;;;;;;;5133582;27;20054;-65
2023/07/20 10:51:59;;;;;;;1.25;0.70;;;;;;;;;;5134748;27;20051;-65
2023/07/20 10:54:36;;;;;;;4.75;0.85;;;;;;;;;;5136421;27;20075;-65
2023/07/20 10:57:18;;;;;;;1.25;0.73;;;;;;;;;;5125424;27;20433;-65
2023/07/20 10:59:48;;;;;;;1.92;0.90;;;;;;;;;;5122215;27;20050;-65
2023/07/20 11:02:19;;;;;;;2.33;0.70;;;;;;;;;;5147510;27;20758;-65
2023/07/20 11:04:47;;;;;;;1.77;0.90;;;;;;;;;;5136336;27;20057;-65
2023/07/20 11:07:17;;;;;;;1.50;0.80;;;;;;;;;;5146082;27;20126;-66
2023/07/20 11:09:44;;;;;;;1.60;0.98;;;;;;;;;;5142225;27;20483;-65
2023/07/20 11:12:13;;;;;;;1.08;0.80;;;;;;;;;;5143169;27;20047;-65
2023/07/20 11:14:42;;;;;;;2.97;1.02;;;;;;;;;;5144137;27;20074;-65
2023/07/20 11:17:14;;;;;;;3.08;0.85;;;;;;;;;;5140882;27;20422;-65
2023/07/20 11:19:42;;;;;;;2.20;0.73;;;;;;;;;;5142309;27;20046;-65
2023/07/20 11:22:09;;;;;;;1.33;0.80;;;;;;;;;;5127164;27;20058;-65
2023/07/20 11:24:40;;;;;;;2.53;1.00;;;;;;;;;;5138323;27;20821;-65
2023/07/20 11:27:07;;;;;;;2.28;0.80;;;;;;;;;;5137438;27;20461;-65
2023/07/20 11:29:37;;;;;;;1.13;0.68;;;;;;;;;;5137942;27;20512;-66
2023/07/20 11:32:04;;;;;;;3.83;0.90;;;;;;;;;;5134308;27;20116;-65
2023/07/20 11:34:34;;;;;;;2.10;0.98;;;;;;;;;;5136287;27;20058;-66
2023/07/20 11:37:01;;;;;;;2.13;1.08;;;;;;;;;;5141165;27;20077;-66
2023/07/20 11:39:28;;;;;;;1.80;0.80;;;;;;;;;;5137944;27;20054;-66
2023/07/20 11:41:56;;;;;;;1.63;0.90;;;;;;;;;;5137486;27;20059;-67
2023/07/20 11:44:26;;;;;;;2.03;1.13;;;;;;;;;;5134589;27;20041;-67
2023/07/20 11:47:01;;;;;;;1.77;0.80;;;;;;;;;;5125321;27;20050;-68
2023/07/20 11:49:28;;;;;;;1.50;0.90;;;;;;;;;;5144357;27;20050;-68
2023/07/20 11:51:58;;;;;;;1.83;0.85;;;;;;;;;;5138395;27;20054;-68
2023/07/20 11:54:25;;;;;;;2.60;0.98;;;;;;;;;;5144062;27;20051;-71
2023/07/20 11:56:55;;;;;;;2.15;0.90;;;;;;;;;;5146102;27;20038;-71
2023/07/20 11:59:23;;;;;;;1.33;0.90;;;;;;;;;;5139601;27;20448;-71
2023/07/20 12:01:50;;;;;;;4.55;0.85;;;;;;;;;;5121313;27;20066;-72
2023/07/20 12:04:18;;;;;;;2.00;1.02;;;;;;;;;;5125774;27;20050;-72
2023/07/20 12:06:47;;;;;;;2.17;1.10;;;;;;;;;;5139325;27;20073;-71
2023/07/20 12:09:17;;;;;;;2.08;0.88;;;;;;;;;;5130137;27;20046;-71
2023/07/20 12:11:45;;;;;;;1.10;0.75;;;;;;;;;;5141717;27;20046;-72
2023/07/20 12:14:13;;;;;;;1.05;0.90;;;;;;;;;;5140402;27;20070;-72
2023/07/20 12:16:40;;;;;;;1.25;0.93;;;;;;;;;;5134137;27;20066;-72
2023/07/20 12:19:08;;;;;;;1.60;1.00;;;;;;;;;;5146742;27;20602;-71
2023/07/20 12:21:36;;;;;;;1.70;0.80;;;;;;;;;;5144877;27;20064;-72
2023/07/20 12:24:03;;;;;;;3.75;0.90;;;;;;;;;;5122653;27;20039;-72
2023/07/20 12:26:32;;;;;;;2.40;1.05;;;;;;;;;;5123293;27;20083;-72
2023/07/20 12:29:00;;;;;;;2.40;1.00;;;;;;;;;;5143483;27;20054;-72
2023/07/20 12:31:29;;;;;;;1.40;0.88;;;;;;;;;;5141335;27;20051;-72
2023/07/20 12:33:58;;;;;;;2.97;0.82;;;;;;;;;;5143620;27;20042;-72
2023/07/20 12:36:25;;;;;;;1.58;0.70;;;;;;;;;;5144198;27;20073;-72
2023/07/20 12:38:53;;;;;;;1.80;0.90;;;;;;;;;;5142608;27;20068;-71
2023/07/20 12:41:20;;;;;;;1.23;0.90;;;;;;;;;;5146211;27;20080;-71
2023/07/20 12:43:48;;;;;;;1.20;0.80;;;;;;;;;;5137058;27;20163;-72
2023/07/20 12:46:15;;;;;;;2.03;1.00;;;;;;;;;;5140069;27;20737;-72
2023/07/20 12:48:43;;;;;;;1.30;0.98;;;;;;;;;;5150042;27;20536;-72
2023/07/20 12:51:11;;;;;;;2.60;0.90;;;;;;;;;;5141056;27;20091;-72
2023/07/20 12:53:39;;;;;;;1.15;0.80;;;;;;;;;;5146540;27;20133;-72
2023/07/20 12:56:06;;;;;;;1.65;0.90;;;;;;;;;;5142386;27;20051;-73
2023/07/20 12:58:34;;;;;;;0.93;0.70;;;;;;;;;;5136324;27;20087;-72
2023/07/20 13:01:03;;;;;;;0.88;0.80;;;;;;;;;;5125021;27;20435;-72
2023/07/20 13:03:30;;;;;;;1.02;0.80;;;;;;;;;;5148383;27;20046;-72
2023/07/20 13:05:58;;;;;;;1.50;1.00;;;;;;;;;;5124238;27;20042;-73
2023/07/20 13:08:26;;;;;;;1.77;0.77;;;;;;;;;;5135580;27;20085;-73
2023/07/20 13:10:54;;;;;;;1.17;0.77;;;;;;;;;;5144786;27;20386;-72
2023/07/20 13:13:21;;;;;;;1.27;1.00;;;;;;;;;;5147951;27;20041;-73
2023/07/20 13:15:49;;;;;;;1.73;0.90;;;;;;;;;;5137541;27;20050;-72
2023/07/20 13:18:18;;;;;;;1.63;1.10;;;;;;;;;;5124722;27;20103;-73
2023/07/20 13:20:45;;;;;;;2.40;1.00;;;;;;;;;;5139885;27;21093;-72
2023/07/20 13:23:12;;;;;;;1.10;1.00;;;;;;;;;;5145812;27;20434;-74
2023/07/20 13:25:40;;;;;;;1.13;0.93;;;;;;;;;;5135705;27;20047;-73
2023/07/20 13:28:08;;;;;;;1.00;0.90;;;;;;;;;;5148781;27;20042;-73
2023/07/20 13:30:35;;;;;;;1.80;1.27;;;;;;;;;;5142062;27;20039;-73
2023/07/20 13:33:02;;;;;;;1.45;0.80;;;;;;;;;;5142317;27;20046;-72
2023/07/20 13:35:31;;;;;;;2.55;1.00;;;;;;;;;;5141136;27;20049;-73
2023/07/20 13:37:58;;;;;;;1.27;1.00;;;;;;;;;;5145758;27;20039;-74
2023/07/20 13:40:25;;;;;;;1.23;0.95;;;;;;;;;;5147122;27;20047;-73
2023/07/20 13:42:53;;;;;;;1.30;1.20;;;;;;;;;;5138762;27;20046;-71
2023/07/20 13:45:20;;;;;;;1.77;0.95;;;;;;;;;;5129172;27;20050;-72
2023/07/20 13:47:47;;;;;;;2.35;0.82;;;;;;;;;;5146411;27;20053;-73
2023/07/20 13:50:14;;;;;;;1.13;0.98;;;;;;;;;;5139726;27;20122;-72
2023/07/20 13:52:43;;;;;;;1.33;0.90;;;;;;;;;;5148584;27;20053;-72
2023/07/20 13:55:10;;;;;;;1.75;1.10;;;;;;;;;;5148237;27;20058;-72
2023/07/20 13:57:38;;;;;;;3.33;1.15;;;;;;;;;;5144997;27;20051;-73
2023/07/20 14:00:08;;;;;;;1.13;1.00;;;;;;;;;;5148810;27;20402;-72
2023/07/20 14:02:36;;;;;;;1.80;1.20;;;;;;;;;;5128090;27;20047;-72
2023/07/20 14:05:03;;;;;;;1.38;1.00;;;;;;;;;;5146103;27;20063;-72
2023/07/20 14:07:31;;;;;;;1.58;1.05;;;;;;;;;;5148835;27;20545;-72
2023/07/20 14:10:00;;;;;;;1.60;1.08;;;;;;;;;;5145559;27;20050;-72
2023/07/20 14:12:27;;;;;;;1.67;1.10;;;;;;;;;;5143357;27;20047;-72
2023/07/20 14:14:55;;;;;;;1.42;1.08;;;;;;;;;;5150622;27;20039;-72
2023/07/20 14:17:22;;;;;;;0.82;0.82;;;;;;;;;;5140842;27;20383;-72
2023/07/20 14:19:50;;;;;;;1.70;0.90;;;;;;;;;;5142203;27;20456;-72
2023/07/20 14:22:18;;;;;;;1.35;0.93;;;;;;;;;;5117382;27;20550;-72
2023/07/20 14:24:45;;;;;;;1.15;0.80;;;;;;;;;;5146228;27;20038;-73
2023/07/20 14:27:14;;;;;;;1.55;0.80;;;;;;;;;;5118197;27;20547;-72
2023/07/20 14:29:41;;;;;;;1.20;0.98;;;;;;;;;;5140629;27;20053;-72
2023/07/20 14:32:09;;;;;;;2.03;1.30;;;;;;;;;;5138398;27;20047;-72
2023/07/20 14:34:36;;;;;;;1.95;1.10;;;;;;;;;;5142238;27;20047;-72
2023/07/20 14:37:04;;;;;;;1.30;1.15;;;;;;;;;;5143650;27;20043;-74
2023/07/20 14:39:31;;;;;;;1.42;0.90;;;;;;;;;;5141853;27;20054;-73
2023/07/20 14:41:59;;;;;;;1.02;0.90;;;;;;;;;;5145405;27;20551;-72
2023/07/20 14:44:27;;;;;;;1.83;1.13;;;;;;;;;;5127004;27;20042;-72
2023/07/20 14:46:55;;;;;;;1.02;0.95;;;;;;;;;;5130093;27;20039;-72
2023/07/20 14:49:22;;;;;;;1.10;1.00;;;;;;;;;;5137904;27;20103;-72